2000 BABIOLA (2000003S13082)


On this page: IBTrACS data - Map and Plots - Positions - Intensities - Original source data

Summary

Start Jan 3
End Jan 14
Basin SI
LMI 90 kt
Sources jtwc_sh
reunion
neumann
In WMO? Yes
Previous storm 2000 ASTRIDE (SI)
Previous in basin 2000 ASTRIDE (SI)
Concurrent storms 2000 ASTRIDE (SI)
2000 BABIOLA (SI)
2000 IRIS (SP)
Next in basin Missing
Next storm 2000 IRIS (SP)

top of page IBTrACS Data: File Access

top of page HURSAT Data: File Access

Image of storm

top of page Plots:

Map of storm track will not appear if FTP is down
Time series of cyclone Maximum Sustained Wind will not appear if FTP is down
Time series of cyclone Minimum Central Pressure will not appear if FTP is down

top of page Track Data:Position

jtwc_sh reunion neumann
Date Lat Lon Lat Lon Lat Lon
2000-01-03 06:00:00 -12.8 82.4 -11.9 82.6 -12.8 82.4
2000-01-03 12:00:00 -12.9 82.1 -12.4 82.2 -12.9 82.1
2000-01-03 18:00:00 -12.9 81.8 -12.5 81.8 -12.9 81.8
2000-01-04 00:00:00 -12.6 81.6 -12.5 81.6 -12.6 81.6
2000-01-04 06:00:00 -12.3 81.7 -12.4 81.8 -12.3 81.7
2000-01-04 12:00:00 -11.8 82.2 -12.0 82.3 -11.8 82.2
2000-01-04 18:00:00 -11.3 82.8 -11.4 82.9 -11.3 82.8
2000-01-05 00:00:00 -10.9 83.3 -10.9 83.4 -10.9 83.3
2000-01-05 06:00:00 -11.2 83.6 -10.9 84.1 -11.2 83.6
2000-01-05 12:00:00 -11.7 83.6 -11.5 84.0 -11.7 83.6
2000-01-05 18:00:00 -12.1 82.9 -11.9 83.2 -12.1 82.9
2000-01-06 00:00:00 -12.5 82.2 -12.3 82.6 -12.5 82.2
2000-01-06 06:00:00 -13.0 81.6 -12.7 82.0 -13.0 81.6
2000-01-06 12:00:00 -13.6 81.1 -13.3 81.4 -13.6 81.1
2000-01-06 18:00:00 -14.2 80.4 -13.8 80.4 -14.2 80.4
2000-01-07 00:00:00 -14.6 79.5 -14.2 79.4 -14.6 79.5
2000-01-07 06:00:00 -15.0 78.2 -14.7 78.3 -15.0 78.2
2000-01-07 12:00:00 -15.3 77.0 -15.2 77.1 -15.3 77.0
2000-01-07 18:00:00 -15.6 75.9 -15.5 75.8 -15.6 75.9
2000-01-08 00:00:00 -15.9 74.8 -15.9 74.7 -15.9 74.8
2000-01-08 06:00:00 -16.4 73.4 -16.5 73.3 -16.4 73.4
2000-01-08 12:00:00 -16.8 72.0 -16.7 72.0 -16.8 72.0
2000-01-08 18:00:00 -17.1 70.9 -17.1 71.1 -17.1 70.9
2000-01-09 00:00:00 -17.5 69.5 -17.8 70.0 -17.5 69.5
2000-01-09 06:00:00 -17.9 68.8 -18.4 68.8 -17.9 68.8
jtwc_sh reunion neumann
2000-01-09 12:00:00 -18.7 68.1 -18.8 68.0 -18.7 68.1
2000-01-09 18:00:00 -19.4 67.6 -19.6 67.6 -19.4 67.6
2000-01-10 00:00:00 -20.0 67.2 -20.3 67.3 -20.0 67.2
2000-01-10 06:00:00 -20.8 67.2 -21.0 67.1 -20.8 67.2
2000-01-10 12:00:00 -21.6 67.3 -21.5 67.1 -21.6 67.3
2000-01-10 18:00:00 -22.6 67.5 -22.2 67.2 -22.6 67.5
2000-01-11 00:00:00 -23.2 67.8 -23.0 67.4 -23.2 67.8
2000-01-11 06:00:00 -23.9 68.2 -23.7 67.7 -23.9 68.2
2000-01-11 12:00:00 -24.6 68.6 -24.7 68.5 -24.6 68.6
2000-01-11 18:00:00 -25.6 68.8 -25.4 68.8 -25.6 68.8
2000-01-12 00:00:00 -26.5 69.4 -26.6 69.3 -26.5 69.4
2000-01-12 06:00:00 -27.9 70.1 -27.7 70.1 -27.9 70.1
2000-01-12 12:00:00 -28.9 71.7 -28.5 71.4 -28.9 71.7
2000-01-12 18:00:00 -29.3 72.7
2000-01-13 00:00:00 -30.6 74.3
2000-01-13 06:00:00 -31.8 74.9
2000-01-13 12:00:00 -33.0 74.8
2000-01-13 18:00:00 -34.1 74.6
2000-01-14 00:00:00 -35.0 74.4
2000-01-14 06:00:00 -36.1 74.9
2000-01-14 12:00:00 -37.5 76.5

top of pageTrack Data:Intensity

jtwc_sh reunion neumann
Date Wind Pres Wind Pres Wind Pres
2000-01-03 06:00:00 25. 25. 1000. 25.
2000-01-03 12:00:00 25. 25. 1000. 25.
2000-01-03 18:00:00 25. 25. 1000. 25.
2000-01-04 00:00:00 30. 25. 999. 30.
2000-01-04 06:00:00 30. 25. 999. 30.
2000-01-04 12:00:00 25. 25. 999. 25.
2000-01-04 18:00:00 25. 25. 999. 25.
2000-01-05 00:00:00 25. 25. 999. 25.
2000-01-05 06:00:00 30. 25. 999. 30.
2000-01-05 12:00:00 30. 30. 997. 30.
2000-01-05 18:00:00 35. 35. 995. 35.
2000-01-06 00:00:00 40. 35. 995. 40.
2000-01-06 06:00:00 45. 40. 992. 45.
2000-01-06 12:00:00 45. 40. 992. 45.
2000-01-06 18:00:00 45. 42. 990. 45.
2000-01-07 00:00:00 45. 45. 987. 45.
2000-01-07 06:00:00 50. 45. 987. 50.
2000-01-07 12:00:00 55. 50. 985. 55.
2000-01-07 18:00:00 55. 53. 980. 55.
2000-01-08 00:00:00 65. 55. 978. 65.
2000-01-08 06:00:00 65. 60. 973. 65.
2000-01-08 12:00:00 65. 65. 970. 65.
2000-01-08 18:00:00 75. 70. 965. 75.
2000-01-09 00:00:00 75. 73. 960. 75.
2000-01-09 06:00:00 75. 75. 958. 75.
jtwc_sh reunion neumann
2000-01-09 12:00:00 80. 80. 953. 80.
2000-01-09 18:00:00 90. 85. 950. 90.
2000-01-10 00:00:00 90. 85. 950. 90.
2000-01-10 06:00:00 90. 85. 950. 90.
2000-01-10 12:00:00 75. 80. 953. 75.
2000-01-10 18:00:00 65. 70. 965. 65.
2000-01-11 00:00:00 55. 58. 975. 55.
2000-01-11 06:00:00 45. 53. 980. 45.
2000-01-11 12:00:00 35. 50. 985. 35.
2000-01-11 18:00:00 35. 40. 992. 35.
2000-01-12 00:00:00 35. 35. 995. 35.
2000-01-12 06:00:00 35. 35. 995. 35.
2000-01-12 12:00:00 30. 35. 995. 30.
2000-01-12 18:00:00 35. 995.
2000-01-13 00:00:00 35. 995.
2000-01-13 06:00:00 35. 990.
2000-01-13 12:00:00 40. 985.
2000-01-13 18:00:00 40. 985.
2000-01-14 00:00:00 40. 985.
2000-01-14 06:00:00 40. 985.
2000-01-14 12:00:00 40. 985.

top of page Links to source data

Source Source file Format
jtwc_sh bsh042000.txt ATCF
reunion WMO-Best-Tracks.txt:Line=18791:babiola WMO (old format)
neumann tracks.sh:Storm=1178:BABIOLA:04S:BSH042000 HURDAT